sensor_id;sensor_type;location;lat;lon;timestamp;pressure;altitude;pressure_sealevel;temperature;humidity
10720;BME280;5411;58.386;15.560;2023-02-03T00:00:17;100503.88;;;-4.67;100.00
10720;BME280;5411;58.386;15.560;2023-02-03T00:02:47;100501.78;;;-4.61;100.00
10720;BME280;5411;58.386;15.560;2023-02-03T00:05:16;100500.75;;;-4.59;100.00
10720;BME280;5411;58.386;15.560;2023-02-03T00:07:44;100490.94;;;-4.55;100.00
10720;BME280;5411;58.386;15.560;2023-02-03T00:10:13;100483.09;;;-4.55;100.00
10720;BME280;5411;58.386;15.560;2023-02-03T00:12:41;100478.63;;;-4.53;100.00
10720;BME280;5411;58.386;15.560;2023-02-03T00:15:10;100474.25;;;-4.53;100.00
10720;BME280;5411;58.386;15.560;2023-02-03T00:17:38;100472.66;;;-4.55;100.00
10720;BME280;5411;58.386;15.560;2023-02-03T00:20:10;100469.63;;;-4.49;100.00
10720;BME280;5411;58.386;15.560;2023-02-03T00:22:39;100462.53;;;-4.47;100.00
10720;BME280;5411;58.386;15.560;2023-02-03T00:25:07;100460.66;;;-4.45;100.00
10720;BME280;5411;58.386;15.560;2023-02-03T00:27:35;100450.22;;;-4.45;100.00
10720;BME280;5411;58.386;15.560;2023-02-03T00:30:04;100438.31;;;-4.49;100.00
10720;BME280;5411;58.386;15.560;2023-02-03T00:32:33;100429.44;;;-4.47;100.00
10720;BME280;5411;58.386;15.560;2023-02-03T00:35:01;100444.34;;;-4.49;100.00
10720;BME280;5411;58.386;15.560;2023-02-03T00:37:31;100426.44;;;-4.53;100.00
10720;BME280;5411;58.386;15.560;2023-02-03T00:40:00;100422.84;;;-4.52;100.00
10720;BME280;5411;58.386;15.560;2023-02-03T00:42:28;100418.47;;;-4.52;100.00
10720;BME280;5411;58.386;15.560;2023-02-03T00:44:56;100417.97;;;-4.57;100.00
10720;BME280;5411;58.386;15.560;2023-02-03T00:47:24;100414.09;;;-4.64;100.00
10720;BME280;5411;58.386;15.560;2023-02-03T00:49:53;100419.19;;;-4.62;100.00
10720;BME280;5411;58.386;15.560;2023-02-03T00:52:22;100406.34;;;-4.66;100.00
10720;BME280;5411;58.386;15.560;2023-02-03T00:54:52;100399.59;;;-4.68;100.00
10720;BME280;5411;58.386;15.560;2023-02-03T00:57:20;100401.78;;;-4.62;100.00
10720;BME280;5411;58.386;15.560;2023-02-03T00:59:48;100403.44;;;-4.61;100.00
10720;BME280;5411;58.386;15.560;2023-02-03T01:02:17;100411.16;;;-4.59;100.00
10720;BME280;5411;58.386;15.560;2023-02-03T01:04:45;100393.94;;;-4.62;100.00
10720;BME280;5411;58.386;15.560;2023-02-03T01:07:14;100398.03;;;-4.58;100.00
10720;BME280;5411;58.386;15.560;2023-02-03T01:09:42;100391.97;;;-4.58;100.00
10720;BME280;5411;58.386;15.560;2023-02-03T01:12:12;100390.94;;;-4.56;100.00
10720;BME280;5411;58.386;15.560;2023-02-03T01:14:41;100365.25;;;-4.62;100.00
10720;BME280;5411;58.386;15.560;2023-02-03T01:17:09;100374.22;;;-4.53;100.00
10720;BME280;5411;58.386;15.560;2023-02-03T01:19:39;100367.94;;;-4.51;100.00
10720;BME280;5411;58.386;15.560;2023-02-03T01:22:07;100360.00;;;-4.49;100.00
10720;BME280;5411;58.386;15.560;2023-02-03T01:24:36;100349.44;;;-4.48;100.00
10720;BME280;5411;58.386;15.560;2023-02-03T01:27:04;100353.63;;;-4.45;100.00
10720;BME280;5411;58.386;15.560;2023-02-03T01:29:34;100354.38;;;-4.43;100.00
10720;BME280;5411;58.386;15.560;2023-02-03T01:32:03;100339.31;;;-4.40;100.00
10720;BME280;5411;58.386;15.560;2023-02-03T01:34:31;100335.63;;;-4.37;100.00
10720;BME280;5411;58.386;15.560;2023-02-03T01:36:59;100323.41;;;-4.37;100.00
10720;BME280;5411;58.386;15.560;2023-02-03T01:39:27;100321.75;;;-4.38;100.00
10720;BME280;5411;58.386;15.560;2023-02-03T01:41:56;100313.09;;;-4.38;100.00
10720;BME280;5411;58.386;15.560;2023-02-03T01:44:38;100310.38;;;-4.37;100.00
10720;BME280;5411;58.386;15.560;2023-02-03T01:47:17;100298.16;;;-4.36;100.00
10720;BME280;5411;58.386;15.560;2023-02-03T01:49:52;100302.31;;;-4.34;100.00
10720;BME280;5411;58.386;15.560;2023-02-03T01:52:22;100292.00;;;-4.35;100.00
10720;BME280;5411;58.386;15.560;2023-02-03T01:54:53;100281.44;;;-4.34;100.00
10720;BME280;5411;58.386;15.560;2023-02-03T01:57:26;100288.59;;;-4.24;100.00
10720;BME280;5411;58.386;15.560;2023-02-03T01:59:58;100276.38;;;-4.24;100.00
10720;BME280;5411;58.386;15.560;2023-02-03T02:02:28;100266.78;;;-4.23;100.00
10720;BME280;5411;58.386;15.560;2023-02-03T02:05:02;100268.44;;;-4.22;100.00
10720;BME280;5411;58.386;15.560;2023-02-03T02:07:33;100265.63;;;-4.19;100.00
10720;BME280;5411;58.386;15.560;2023-02-03T02:10:03;100255.78;;;-4.16;100.00
10720;BME280;5411;58.386;15.560;2023-02-03T02:12:33;100247.84;;;-4.14;100.00
10720;BME280;5411;58.386;15.560;2023-02-03T02:15:03;100240.69;;;-4.12;100.00
10720;BME280;5411;58.386;15.560;2023-02-03T02:17:59;100231.22;;;-4.13;100.00
10720;BME280;5411;58.386;15.560;2023-02-03T02:23:59;100233.00;;;-4.14;100.00
10720;BME280;5411;58.386;15.560;2023-02-03T02:26:53;100220.78;;;-4.13;100.00
10720;BME280;5411;58.386;15.560;2023-02-03T02:32:42;100207.94;;;-4.16;100.00
10720;BME280;5411;58.386;15.560;2023-02-03T02:35:19;100207.00;;;-4.15;100.00
10720;BME280;5411;58.386;15.560;2023-02-03T02:37:54;100205.34;;;-4.16;100.00
10720;BME280;5411;58.386;15.560;2023-02-03T02:40:32;100198.44;;;-4.17;100.00
10720;BME280;5411;58.386;15.560;2023-02-03T02:43:07;100197.59;;;-4.18;100.00
10720;BME280;5411;58.386;15.560;2023-02-03T02:45:42;100200.22;;;-4.18;100.00
10720;BME280;5411;58.386;15.560;2023-02-03T02:48:18;100193.34;;;-4.19;100.00
10720;BME280;5411;58.386;15.560;2023-02-03T02:50:48;100193.94;;;-4.15;100.00
10720;BME280;5411;58.386;15.560;2023-02-03T02:53:21;100178.50;;;-4.18;100.00
10720;BME280;5411;58.386;15.560;2023-02-03T02:55:52;100182.88;;;-4.19;100.00
10720;BME280;5411;58.386;15.560;2023-02-03T02:58:22;100176.94;;;-4.21;100.00
10720;BME280;5411;58.386;15.560;2023-02-03T03:00:51;100172.56;;;-4.20;100.00
10720;BME280;5411;58.386;15.560;2023-02-03T03:03:22;100166.38;;;-4.19;100.00
10720;BME280;5411;58.386;15.560;2023-02-03T03:05:53;100162.09;;;-4.20;100.00
10720;BME280;5411;58.386;15.560;2023-02-03T03:08:26;100154.06;;;-4.17;100.00
10720;BME280;5411;58.386;15.560;2023-02-03T03:10:57;100150.59;;;-4.18;100.00
10720;BME280;5411;58.386;15.560;2023-02-03T03:13:30;100148.00;;;-4.18;100.00
10720;BME280;5411;58.386;15.560;2023-02-03T03:16:01;100147.28;;;-4.20;100.00
10720;BME280;5411;58.386;15.560;2023-02-03T03:18:37;100142.06;;;-4.20;100.00
10720;BME280;5411;58.386;15.560;2023-02-03T03:21:14;100130.16;;;-4.24;100.00
10720;BME280;5411;58.386;15.560;2023-02-03T03:23:46;100127.31;;;-4.21;100.00
10720;BME280;5411;58.386;15.560;2023-02-03T03:26:21;100128.28;;;-4.22;100.00
10720;BME280;5411;58.386;15.560;2023-02-03T03:28:59;100118.78;;;-4.23;100.00
10720;BME280;5411;58.386;15.560;2023-02-03T03:31:30;100113.53;;;-4.23;100.00
10720;BME280;5411;58.386;15.560;2023-02-03T03:34:00;100108.44;;;-4.24;100.00
10720;BME280;5411;58.386;15.560;2023-02-03T03:36:31;100109.28;;;-4.24;100.00
10720;BME280;5411;58.386;15.560;2023-02-03T03:39:03;100114.59;;;-4.25;100.00
10720;BME280;5411;58.386;15.560;2023-02-03T03:41:40;100112.00;;;-4.25;100.00
10720;BME280;5411;58.386;15.560;2023-02-03T03:44:14;100100.59;;;-4.24;100.00
10720;BME280;5411;58.386;15.560;2023-02-03T03:46:48;100094.44;;;-4.23;100.00
10720;BME280;5411;58.386;15.560;2023-02-03T03:49:21;100089.94;;;-4.21;100.00
10720;BME280;5411;58.386;15.560;2023-02-03T03:51:55;100091.25;;;-4.16;100.00
10720;BME280;5411;58.386;15.560;2023-02-03T03:54:28;100092.44;;;-4.09;100.00
10720;BME280;5411;58.386;15.560;2023-02-03T03:57:01;100094.84;;;-4.06;100.00
10720;BME280;5411;58.386;15.560;2023-02-03T03:59:36;100079.88;;;-4.04;100.00
10720;BME280;5411;58.386;15.560;2023-02-03T04:02:07;100075.38;;;-4.02;100.00
10720;BME280;5411;58.386;15.560;2023-02-03T04:04:37;100065.88;;;-4.03;100.00
10720;BME280;5411;58.386;15.560;2023-02-03T04:07:07;100068.38;;;-4.01;100.00
10720;BME280;5411;58.386;15.560;2023-02-03T04:09:36;100065.75;;;-4.01;100.00
10720;BME280;5411;58.386;15.560;2023-02-03T04:12:08;100067.53;;;-4.02;100.00
10720;BME280;5411;58.386;15.560;2023-02-03T04:14:40;100062.22;;;-4.00;100.00
10720;BME280;5411;58.386;15.560;2023-02-03T04:17:08;100054.94;;;-3.97;100.00
10720;BME280;5411;58.386;15.560;2023-02-03T04:19:38;100053.28;;;-3.98;100.00
10720;BME280;5411;58.386;15.560;2023-02-03T04:22:06;100041.53;;;-3.92;100.00
10720;BME280;5411;58.386;15.560;2023-02-03T04:24:35;100033.47;;;-3.89;100.00
10720;BME280;5411;58.386;15.560;2023-02-03T04:27:04;100032.41;;;-3.86;100.00
10720;BME280;5411;58.386;15.560;2023-02-03T04:29:32;100022.75;;;-3.86;100.00
10720;BME280;5411;58.386;15.560;2023-02-03T04:32:01;100020.75;;;-3.82;100.00
10720;BME280;5411;58.386;15.560;2023-02-03T04:34:29;100017.06;;;-3.80;100.00
10720;BME280;5411;58.386;15.560;2023-02-03T04:36:59;100018.84;;;-3.80;100.00
10720;BME280;5411;58.386;15.560;2023-02-03T04:39:28;100006.63;;;-3.80;100.00
10720;BME280;5411;58.386;15.560;2023-02-03T04:41:56;100005.66;;;-3.79;100.00
10720;BME280;5411;58.386;15.560;2023-02-03T04:44:25;99999.50;;;-3.78;100.00
10720;BME280;5411;58.386;15.560;2023-02-03T04:46:53;99991.41;;;-3.75;100.00
10720;BME280;5411;58.386;15.560;2023-02-03T04:49:23;99985.25;;;-3.74;100.00
10720;BME280;5411;58.386;15.560;2023-02-03T04:51:52;99981.66;;;-3.73;100.00
10720;BME280;5411;58.386;15.560;2023-02-03T04:54:22;99980.69;;;-3.72;100.00
10720;BME280;5411;58.386;15.560;2023-02-03T04:56:50;99979.75;;;-3.71;100.00
10720;BME280;5411;58.386;15.560;2023-02-03T04:59:20;99971.78;;;-3.69;100.00
10720;BME280;5411;58.386;15.560;2023-02-03T05:01:48;99971.44;;;-3.65;100.00
10720;BME280;5411;58.386;15.560;2023-02-03T05:04:17;99958.72;;;-3.69;100.00
10720;BME280;5411;58.386;15.560;2023-02-03T05:06:45;99957.41;;;-3.64;100.00
10720;BME280;5411;58.386;15.560;2023-02-03T05:09:14;99952.19;;;-3.64;100.00
10720;BME280;5411;58.386;15.560;2023-02-03T05:11:44;99941.75;;;-3.64;100.00
10720;BME280;5411;58.386;15.560;2023-02-03T05:14:13;99943.41;;;-3.63;100.00
10720;BME280;5411;58.386;15.560;2023-02-03T05:16:41;99936.28;;;-3.61;100.00
10720;BME280;5411;58.386;15.560;2023-02-03T05:19:11;99936.00;;;-3.58;100.00
10720;BME280;5411;58.386;15.560;2023-02-03T05:21:39;99939.31;;;-3.55;100.00
10720;BME280;5411;58.386;15.560;2023-02-03T05:24:08;99937.44;;;-3.53;100.00
10720;BME280;5411;58.386;15.560;2023-02-03T05:26:36;99922.69;;;-3.54;100.00
10720;BME280;5411;58.386;15.560;2023-02-03T05:29:06;99922.56;;;-3.53;100.00
10720;BME280;5411;58.386;15.560;2023-02-03T05:31:35;99906.31;;;-3.56;100.00
10720;BME280;5411;58.386;15.560;2023-02-03T05:34:04;99900.94;;;-3.55;100.00
10720;BME280;5411;58.386;15.560;2023-02-03T05:36:32;99913.53;;;-3.49;100.00
10720;BME280;5411;58.386;15.560;2023-02-03T05:39:01;99900.59;;;-3.50;100.00
10720;BME280;5411;58.386;15.560;2023-02-03T05:41:29;99902.81;;;-3.46;100.00
10720;BME280;5411;58.386;15.560;2023-02-03T05:44:16;99897.47;;;-3.44;100.00
10720;BME280;5411;58.386;15.560;2023-02-03T05:46:44;99891.16;;;-3.42;100.00
10720;BME280;5411;58.386;15.560;2023-02-03T05:49:13;99884.97;;;-3.41;100.00
10720;BME280;5411;58.386;15.560;2023-02-03T05:51:43;99872.84;;;-3.42;100.00
10720;BME280;5411;58.386;15.560;2023-02-03T05:54:12;99867.63;;;-3.42;100.00
10720;BME280;5411;58.386;15.560;2023-02-03T05:56:40;99872.03;;;-3.42;100.00
10720;BME280;5411;58.386;15.560;2023-02-03T05:59:09;99868.03;;;-3.46;100.00
10720;BME280;5411;58.386;15.560;2023-02-03T06:01:39;99860.03;;;-3.45;100.00
10720;BME280;5411;58.386;15.560;2023-02-03T06:04:07;99865.13;;;-3.43;100.00
10720;BME280;5411;58.386;15.560;2023-02-03T06:06:36;99847.78;;;-3.44;100.00
10720;BME280;5411;58.386;15.560;2023-02-03T06:09:05;99840.06;;;-3.46;100.00
10720;BME280;5411;58.386;15.560;2023-02-03T06:11:35;99842.84;;;-3.47;100.00
10720;BME280;5411;58.386;15.560;2023-02-03T06:14:04;99842.69;;;-3.46;100.00
10720;BME280;5411;58.386;15.560;2023-02-03T06:16:32;99839.00;;;-3.43;100.00
10720;BME280;5411;58.386;15.560;2023-02-03T06:19:02;99841.47;;;-3.42;100.00
10720;BME280;5411;58.386;15.560;2023-02-03T06:21:32;99839.69;;;-3.41;100.00
10720;BME280;5411;58.386;15.560;2023-02-03T06:24:00;99840.28;;;-3.38;100.00
10720;BME280;5411;58.386;15.560;2023-02-03T06:26:29;99839.19;;;-3.35;100.00
10720;BME280;5411;58.386;15.560;2023-02-03T06:28:57;99835.63;;;-3.34;100.00
10720;BME280;5411;58.386;15.560;2023-02-03T06:31:26;99824.91;;;-3.31;100.00
10720;BME280;5411;58.386;15.560;2023-02-03T06:33:54;99825.47;;;-3.28;100.00
10720;BME280;5411;58.386;15.560;2023-02-03T06:36:24;99823.56;;;-3.26;100.00
10720;BME280;5411;58.386;15.560;2023-02-03T06:38:52;99829.50;;;-3.24;100.00
10720;BME280;5411;58.386;15.560;2023-02-03T06:41:20;99819.88;;;-3.23;100.00
10720;BME280;5411;58.386;15.560;2023-02-03T06:43:56;99830.09;;;-3.20;100.00
10720;BME280;5411;58.386;15.560;2023-02-03T06:46:24;99826.34;;;-3.17;100.00
10720;BME280;5411;58.386;15.560;2023-02-03T06:48:57;99826.94;;;-3.14;100.00
10720;BME280;5411;58.386;15.560;2023-02-03T06:51:27;99828.34;;;-3.10;100.00
10720;BME280;5411;58.386;15.560;2023-02-03T06:53:55;99817.19;;;-3.12;100.00
10720;BME280;5411;58.386;15.560;2023-02-03T06:56:24;99815.03;;;-3.07;100.00
10720;BME280;5411;58.386;15.560;2023-02-03T06:58:52;99822.59;;;-3.04;100.00
10720;BME280;5411;58.386;15.560;2023-02-03T07:01:21;99819.97;;;-3.04;100.00
10720;BME280;5411;58.386;15.560;2023-02-03T07:03:49;99805.09;;;-3.03;100.00
10720;BME280;5411;58.386;15.560;2023-02-03T07:06:17;99811.03;;;-3.01;100.00
10720;BME280;5411;58.386;15.560;2023-02-03T07:08:47;99799.22;;;-2.96;100.00
10720;BME280;5411;58.386;15.560;2023-02-03T07:11:15;99804.06;;;-2.91;100.00
10720;BME280;5411;58.386;15.560;2023-02-03T07:13:44;99796.66;;;-2.86;100.00
10720;BME280;5411;58.386;15.560;2023-02-03T07:16:12;99797.09;;;-2.81;100.00
10720;BME280;5411;58.386;15.560;2023-02-03T07:18:41;99788.97;;;-2.78;100.00
10720;BME280;5411;58.386;15.560;2023-02-03T07:21:14;99792.28;;;-2.76;100.00
10720;BME280;5411;58.386;15.560;2023-02-03T07:23:47;99785.00;;;-2.72;100.00
10720;BME280;5411;58.386;15.560;2023-02-03T07:26:16;99778.81;;;-2.71;100.00
10720;BME280;5411;58.386;15.560;2023-02-03T07:28:45;99778.81;;;-2.71;100.00
10720;BME280;5411;58.386;15.560;2023-02-03T07:31:14;99788.31;;;-2.70;100.00
10720;BME280;5411;58.386;15.560;2023-02-03T07:33:42;99783.91;;;-2.70;100.00
10720;BME280;5411;58.386;15.560;2023-02-03T07:36:11;99779.91;;;-2.64;100.00
10720;BME280;5411;58.386;15.560;2023-02-03T07:38:39;99780.63;;;-2.62;100.00
10720;BME280;5411;58.386;15.560;2023-02-03T07:41:11;99782.28;;;-2.61;100.00
10720;BME280;5411;58.386;15.560;2023-02-03T07:43:43;99773.34;;;-2.59;100.00
10720;BME280;5411;58.386;15.560;2023-02-03T07:46:12;99776.66;;;-2.57;100.00
10720;BME280;5411;58.386;15.560;2023-02-03T07:48:40;99773.19;;;-2.57;100.00
10720;BME280;5411;58.386;15.560;2023-02-03T07:51:09;99773.91;;;-2.55;100.00
10720;BME280;5411;58.386;15.560;2023-02-03T07:53:38;99767.72;;;-2.54;100.00
10720;BME280;5411;58.386;15.560;2023-02-03T07:56:06;99763.84;;;-2.50;100.00
10720;BME280;5411;58.386;15.560;2023-02-03T07:58:36;99765.38;;;-2.47;100.00
10720;BME280;5411;58.386;15.560;2023-02-03T08:01:10;99777.09;;;-2.42;100.00
10720;BME280;5411;58.386;15.560;2023-02-03T08:03:39;99774.34;;;-2.40;100.00
10720;BME280;5411;58.386;15.560;2023-02-03T08:06:07;99771.19;;;-2.34;100.00
10720;BME280;5411;58.386;15.560;2023-02-03T08:08:36;99771.88;;;-2.32;100.00
10720;BME280;5411;58.386;15.560;2023-02-03T08:11:04;99773.53;;;-2.31;100.00
10720;BME280;5411;58.386;15.560;2023-02-03T08:13:32;99779.47;;;-2.29;100.00
10720;BME280;5411;58.386;15.560;2023-02-03T08:16:02;99786.25;;;-2.27;100.00
10720;BME280;5411;58.386;15.560;2023-02-03T08:18:32;99790.09;;;-2.21;100.00
10720;BME280;5411;58.386;15.560;2023-02-03T08:21:00;99784.03;;;-2.22;100.00
10720;BME280;5411;58.386;15.560;2023-02-03T08:23:30;99790.91;;;-2.21;100.00
10720;BME280;5411;58.386;15.560;2023-02-03T08:26:00;99787.34;;;-2.20;100.00
10720;BME280;5411;58.386;15.560;2023-02-03T08:28:28;99786.25;;;-2.17;100.00
10720;BME280;5411;58.386;15.560;2023-02-03T08:30:59;99795.75;;;-2.16;100.00
10720;BME280;5411;58.386;15.560;2023-02-03T08:33:29;99781.84;;;-2.17;100.00
10720;BME280;5411;58.386;15.560;2023-02-03T08:35:58;99797.00;;;-2.10;100.00
10720;BME280;5411;58.386;15.560;2023-02-03T08:38:26;99798.78;;;-2.11;100.00
10720;BME280;5411;58.386;15.560;2023-02-03T08:40:55;99804.03;;;-2.11;100.00
10720;BME280;5411;58.386;15.560;2023-02-03T08:43:24;99795.91;;;-2.08;100.00
10720;BME280;5411;58.386;15.560;2023-02-03T08:45:52;99795.38;;;-2.02;100.00
10720;BME280;5411;58.386;15.560;2023-02-03T08:48:22;99793.44;;;-2.00;100.00
10720;BME280;5411;58.386;15.560;2023-02-03T08:50:53;99797.41;;;-1.96;100.00
10720;BME280;5411;58.386;15.560;2023-02-03T08:53:21;99793.69;;;-1.93;100.00
10720;BME280;5411;58.386;15.560;2023-02-03T08:55:49;99806.53;;;-1.90;100.00
10720;BME280;5411;58.386;15.560;2023-02-03T08:58:18;99802.97;;;-1.89;100.00
10720;BME280;5411;58.386;15.560;2023-02-03T09:00:46;99803.78;;;-1.89;100.00
10720;BME280;5411;58.386;15.560;2023-02-03T09:03:26;99815.63;;;-1.85;100.00
10720;BME280;5411;58.386;15.560;2023-02-03T09:05:59;99822.97;;;-1.88;100.00
10720;BME280;5411;58.386;15.560;2023-02-03T09:08:28;99825.72;;;-1.90;100.00
10720;BME280;5411;58.386;15.560;2023-02-03T09:10:56;99816.06;;;-1.89;100.00
10720;BME280;5411;58.386;15.560;2023-02-03T09:13:25;99821.69;;;-1.84;100.00
10720;BME280;5411;58.386;15.560;2023-02-03T09:15:53;99823.78;;;-1.78;100.00
10720;BME280;5411;58.386;15.560;2023-02-03T09:18:21;99829.44;;;-1.73;100.00
10720;BME280;5411;58.386;15.560;2023-02-03T09:20:49;99834.84;;;-1.65;100.00
10720;BME280;5411;58.386;15.560;2023-02-03T09:23:19;99839.69;;;-1.60;100.00
10720;BME280;5411;58.386;15.560;2023-02-03T09:25:47;99833.31;;;-1.58;100.00
10720;BME280;5411;58.386;15.560;2023-02-03T09:28:16;99837.88;;;-1.50;100.00
10720;BME280;5411;58.386;15.560;2023-02-03T09:30:44;99838.13;;;-1.44;100.00
10720;BME280;5411;58.386;15.560;2023-02-03T09:33:13;99837.84;;;-1.40;100.00
10720;BME280;5411;58.386;15.560;2023-02-03T09:35:42;99837.44;;;-1.36;100.00
10720;BME280;5411;58.386;15.560;2023-02-03T09:38:20;99832.47;;;-1.29;100.00
10720;BME280;5411;58.386;15.560;2023-02-03T09:40:52;99833.16;;;-1.27;100.00
10720;BME280;5411;58.386;15.560;2023-02-03T09:43:40;99821.56;;;-1.25;100.00
10720;BME280;5411;58.386;15.560;2023-02-03T09:46:16;99816.56;;;-1.18;100.00
10720;BME280;5411;58.386;15.560;2023-02-03T09:48:47;99813.78;;;-1.17;100.00
10720;BME280;5411;58.386;15.560;2023-02-03T09:51:21;99818.63;;;-1.12;100.00
10720;BME280;5411;58.386;15.560;2023-02-03T09:53:57;99830.19;;;-1.05;100.00
10720;BME280;5411;58.386;15.560;2023-02-03T09:56:30;99833.22;;;-1.00;100.00
10720;BME280;5411;58.386;15.560;2023-02-03T09:59:02;99844.97;;;-0.94;100.00
10720;BME280;5411;58.386;15.560;2023-02-03T10:01:38;99846.31;;;-0.90;100.00
10720;BME280;5411;58.386;15.560;2023-02-03T10:04:21;99846.03;;;-0.87;100.00
10720;BME280;5411;58.386;15.560;2023-02-03T10:06:57;99848.41;;;-0.84;100.00
10720;BME280;5411;58.386;15.560;2023-02-03T10:09:39;99852.41;;;-0.80;100.00
10720;BME280;5411;58.386;15.560;2023-02-03T10:12:29;99862.72;;;-0.79;100.00
10720;BME280;5411;58.386;15.560;2023-02-03T10:15:11;99863.69;;;-0.80;100.00
10720;BME280;5411;58.386;15.560;2023-02-03T10:17:47;99861.75;;;-0.78;100.00
10720;BME280;5411;58.386;15.560;2023-02-03T10:20:22;99871.56;;;-0.70;100.00
10720;BME280;5411;58.386;15.560;2023-02-03T10:22:56;99878.72;;;-0.62;100.00
10720;BME280;5411;58.386;15.560;2023-02-03T10:25:32;99876.50;;;-0.57;100.00
10720;BME280;5411;58.386;15.560;2023-02-03T10:28:08;99875.41;;;-0.55;100.00
10720;BME280;5411;58.386;15.560;2023-02-03T10:30:43;99879.22;;;-0.49;100.00
10720;BME280;5411;58.386;15.560;2023-02-03T10:33:15;99871.50;;;-0.51;100.00
10720;BME280;5411;58.386;15.560;2023-02-03T10:35:48;99878.25;;;-0.48;100.00
10720;BME280;5411;58.386;15.560;2023-02-03T10:38:31;99863.59;;;-0.41;100.00
10720;BME280;5411;58.386;15.560;2023-02-03T10:41:04;99869.00;;;-0.43;100.00
10720;BME280;5411;58.386;15.560;2023-02-03T10:43:33;99876.56;;;-0.40;100.00
10720;BME280;5411;58.386;15.560;2023-02-03T10:46:20;99876.97;;;-0.34;100.00
10720;BME280;5411;58.386;15.560;2023-02-03T10:48:49;99883.31;;;-0.27;100.00
10720;BME280;5411;58.386;15.560;2023-02-03T10:51:21;99881.34;;;-0.25;100.00
10720;BME280;5411;58.386;15.560;2023-02-03T10:53:50;99875.94;;;-0.24;100.00
10720;BME280;5411;58.386;15.560;2023-02-03T10:56:23;99876.75;;;-0.23;100.00
10720;BME280;5411;58.386;15.560;2023-02-03T10:58:53;99880.09;;;-0.21;100.00
10720;BME280;5411;58.386;15.560;2023-02-03T11:01:24;99888.66;;;-0.19;100.00
10720;BME280;5411;58.386;15.560;2023-02-03T11:03:57;99888.09;;;-0.23;100.00
10720;BME280;5411;58.386;15.560;2023-02-03T11:06:26;99887.41;;;-0.15;100.00
10720;BME280;5411;58.386;15.560;2023-02-03T11:08:55;99892.06;;;-0.09;100.00
10720;BME280;5411;58.386;15.560;2023-02-03T11:11:26;99897.25;;;0.00;100.00
10720;BME280;5411;58.386;15.560;2023-02-03T11:14:11;99893.22;;;0.06;100.00
10720;BME280;5411;58.386;15.560;2023-02-03T11:16:43;99892.03;;;0.18;100.00
10720;BME280;5411;58.386;15.560;2023-02-03T11:19:15;99890.09;;;0.20;100.00
10720;BME280;5411;58.386;15.560;2023-02-03T11:21:47;99895.75;;;0.25;100.00
10720;BME280;5411;58.386;15.560;2023-02-03T11:24:19;99896.25;;;0.29;100.00
10720;BME280;5411;58.386;15.560;2023-02-03T11:26:54;99894.59;;;0.28;100.00
10720;BME280;5411;58.386;15.560;2023-02-03T11:29:25;99893.13;;;0.25;100.00
10720;BME280;5411;58.386;15.560;2023-02-03T11:31:56;99898.38;;;0.25;100.00
10720;BME280;5411;58.386;15.560;2023-02-03T11:34:28;99889.81;;;0.23;100.00
10720;BME280;5411;58.386;15.560;2023-02-03T11:37:09;99896.19;;;0.21;100.00
10720;BME280;5411;58.386;15.560;2023-02-03T11:39:55;99893.94;;;0.26;100.00
10720;BME280;5411;58.386;15.560;2023-02-03T11:42:25;99896.34;;;0.37;100.00
10720;BME280;5411;58.386;15.560;2023-02-03T11:45:12;99901.69;;;0.45;100.00
10720;BME280;5411;58.386;15.560;2023-02-03T11:47:44;99912.75;;;0.49;100.00
10720;BME280;5411;58.386;15.560;2023-02-03T11:50:23;99922.66;;;0.55;100.00
10720;BME280;5411;58.386;15.560;2023-02-03T11:53:09;99924.31;;;0.56;100.00
10720;BME280;5411;58.386;15.560;2023-02-03T11:55:51;99928.91;;;0.54;100.00
10720;BME280;5411;58.386;15.560;2023-02-03T11:58:56;99934.16;;;0.54;100.00
10720;BME280;5411;58.386;15.560;2023-02-03T12:04:41;99941.56;;;0.50;100.00
10720;BME280;5411;58.386;15.560;2023-02-03T12:07:29;99944.88;;;0.52;100.00
10720;BME280;5411;58.386;15.560;2023-02-03T12:10:06;99950.50;;;0.57;100.00
10720;BME280;5411;58.386;15.560;2023-02-03T12:12:50;99961.41;;;0.62;100.00
10720;BME280;5411;58.386;15.560;2023-02-03T12:15:49;99959.31;;;0.66;100.00
10720;BME280;5411;58.386;15.560;2023-02-03T12:18:30;99974.50;;;0.72;100.00
10720;BME280;5411;58.386;15.560;2023-02-03T12:21:16;99980.44;;;0.74;100.00
10720;BME280;5411;58.386;15.560;2023-02-03T12:23:55;99984.88;;;0.74;100.00
10720;BME280;5411;58.386;15.560;2023-02-03T12:26:33;99985.16;;;0.70;100.00
10720;BME280;5411;58.386;15.560;2023-02-03T12:29:09;99989.31;;;0.73;100.00
10720;BME280;5411;58.386;15.560;2023-02-03T12:31:57;100003.59;;;0.70;100.00
10720;BME280;5411;58.386;15.560;2023-02-03T12:34:32;100002.09;;;0.68;100.00
10720;BME280;5411;58.386;15.560;2023-02-03T12:37:04;100001.94;;;0.69;100.00
10720;BME280;5411;58.386;15.560;2023-02-03T12:39:35;100022.31;;;0.67;100.00
10720;BME280;5411;58.386;15.560;2023-02-03T12:42:18;100017.22;;;0.66;100.00
10720;BME280;5411;58.386;15.560;2023-02-03T12:44:51;100025.63;;;0.69;100.00
10720;BME280;5411;58.386;15.560;2023-02-03T12:47:26;100038.66;;;0.71;100.00
10720;BME280;5411;58.386;15.560;2023-02-03T12:50:02;100042.78;;;0.74;100.00
10720;BME280;5411;58.386;15.560;2023-02-03T12:52:35;100066.50;;;0.74;100.00
10720;BME280;5411;58.386;15.560;2023-02-03T12:55:17;100068.00;;;0.76;100.00
10720;BME280;5411;58.386;15.560;2023-02-03T12:57:51;100084.09;;;0.73;100.00
10720;BME280;5411;58.386;15.560;2023-02-03T13:00:33;100085.59;;;0.76;100.00
10720;BME280;5411;58.386;15.560;2023-02-03T13:03:12;100087.41;;;0.75;100.00
10720;BME280;5411;58.386;15.560;2023-02-03T13:05:45;100103.75;;;0.79;100.00
10720;BME280;5411;58.386;15.560;2023-02-03T13:08:22;100111.03;;;0.85;100.00
10720;BME280;5411;58.386;15.560;2023-02-03T13:10:58;100104.50;;;0.89;100.00
10720;BME280;5411;58.386;15.560;2023-02-03T13:13:33;100107.00;;;0.90;100.00
10720;BME280;5411;58.386;15.560;2023-02-03T13:16:06;100121.81;;;0.91;100.00
10720;BME280;5411;58.386;15.560;2023-02-03T13:18:44;100125.81;;;0.95;100.00
10720;BME280;5411;58.386;15.560;2023-02-03T13:21:14;100129.59;;;0.93;100.00